EGPH

Edinburgh Airport

Edinburgh, United Kingdom
METAR EGPH 191920Z VRB03KT 9999 BKN015 03/01 Q1010
Observed Flight Rules
Jan-19 @ 19:20 UTC (12 minutes ago) Marginal Visual Flight Rules
Wind Visibility Clouds
Variable at 3 knots 10,000+ meters
  • Broken at 1,500' AGL
Temperatures Readings
Current 3°C / 37°F
Dewpoint 1°C / 34°F
Humidity 87%
Altimeter 29.82" Hg
Pressure 1009.92 hPa
Elevation 41
METAR EGPH 191920Z VRB03KT 9999 BKN015 03/01 Q1010
Observed Flight Rules
Jan-19 @ 19:20 UTC
(12 minutes ago)
MVFR
Wind Visibility
Variable at 3 knots 10,000+ meters
Clouds
  • Broken at 1,500' AGL
Temperature Dewpoint
3°C / 37°F 1°C / 34°F
Humidity Altimeter Pressure
87% 29.82" Hg 1009.92 hPa